Aeroporto :
LOGIN :

Iscrizione | Disclaimer

   EN    FR    IT 

 










Sommario :    VFR   VFR Marginale   IFR   IFR Intensivo   IFR Molto Intensivo
Visibilità : 
Base nubi : 
>= 8 km
>= 3000ft
5 / 8 km
1000 / 3000 ft
1500m / 5 km
500 / 1000 ft
800 / 1500m
200 / 500 ft
< 800m
< 200 ft
Simboli :   Temporali  Nebbia  Neve Forte  Precipitazioni Forti  Vento > 20 kt
SIGMETs :   Varie  Temporali  Ghiacco  Turbolenza  Onda orograficha  Ceneri Vulcaniche






- Altitudine del aeroporto : 357 ft
- Codice IATA : TUF


LFOT - Tours

ULTIMO METAR :
  • 211630Z AUTO 17010KT 9999 BKN011 BKN062 OVC100 08/07 Q1002 TEMPO 4000 SHRA SCT015 SCT030CB

METARs OBSOLETI :
  • 211600Z AUTO 17008KT 140V200 9999 OVC010 08/07 Q1002 BECMG SCT025 BKN040
  • 211530Z AUTO 15007KT 9999 OVC009 08/07 Q1002 BECMG SCT025 BKN040
  • 211500Z AUTO 16009KT 9999 OVC009 08/07 Q1002 TEMPO 3000 RA BECMG SCT025 BKN040
  • 211430Z AUTO 17008KT 9999 OVC008 08/08 Q1002 TEMPO 3000 RA BECMG SCT025 BKN040
  • 211400Z AUTO 16010KT 9999 BKN008 BKN027 BKN044 08/07 Q1002 TEMPO 3000 RA

TAF AMD TAF LFOT
Valido dal 21 a 16 ore il 22 a 12 ore UTC


211632Z 2116/2212 16010KT 9999 SCT025 BKN040
PROB30
TEMPO 2116/2118 -RA BKN008 BKN035
PROB30
TEMPO 2118/2123 4000 SHRA SCT015 SCT030CB
PROB30
TEMPO 2203/2207 BKN008
BECMG 2208/2211 CAVOK



MetMap, La meteo Aeronautica in un colpo d'occhio ! - Copyright ORBIFLY Dicembre 2007 - Disclaimer

ORBIFLY MET'MAP TEAM :

Programmazione e sviluppo : Alexandra Zaïnal
Concezione e sviluppo : Baudouin d'Aumeries
Co-Programmazione e sviluppo : Marc-Olivier Méhu
Supporto tecnico e logistico : Manuel Goepfert
Aiuto per la traduzione : Arnaldo La Scala

Contatto : metmap@orbifly.com




FONTI E CREDITI :

   NOAA